createdAt,value
2024-01-15T00:01:17.599Z,0.52
2024-01-15T00:03:20.759Z,0.52
2024-01-15T00:05:23.832Z,0.53
2024-01-15T00:07:26.997Z,0.55
2024-01-15T00:09:31.508Z,0.56
2024-01-15T00:11:34.829Z,0.56
2024-01-15T00:13:37.824Z,0.56
2024-01-15T00:15:40.960Z,0.54
2024-01-15T00:17:44.088Z,0.52
2024-01-15T00:19:47.229Z,0.52
2024-01-15T00:21:50.643Z,0.49
2024-01-15T00:23:52.806Z,0.46
2024-01-15T00:25:57.266Z,0.44
2024-01-15T00:28:00.430Z,0.43
2024-01-15T00:30:03.859Z,0.43
2024-01-15T00:32:08.054Z,0.42
2024-01-15T00:34:10.277Z,0.43
2024-01-15T00:36:13.455Z,0.44
2024-01-15T00:38:16.518Z,0.44
2024-01-15T00:40:19.612Z,0.47
2024-01-15T00:42:24.035Z,0.46
2024-01-15T00:44:27.077Z,0.47
2024-01-15T00:46:30.112Z,0.49
2024-01-15T00:48:33.511Z,0.48
2024-01-15T00:50:36.751Z,0.50
2024-01-15T00:52:39.764Z,0.52
2024-01-15T00:54:42.891Z,0.52
2024-01-15T00:56:45.967Z,0.49
2024-01-15T00:58:49.602Z,0.45
2024-01-15T01:00:52.792Z,0.44
2024-01-15T01:02:55.011Z,0.42
2024-01-15T01:04:58.032Z,0.41
2024-01-15T01:07:01.221Z,0.40
2024-01-15T01:09:04.557Z,0.40
2024-01-15T01:11:07.969Z,0.41
2024-01-15T01:13:11.130Z,0.42
2024-01-15T01:15:14.774Z,0.43
2024-01-15T01:17:17.962Z,0.43
2024-01-15T01:19:21.262Z,0.45
2024-01-15T01:21:24.508Z,0.48
2024-01-15T01:23:27.538Z,0.52
2024-01-15T01:25:30.624Z,0.56
2024-01-15T01:27:33.662Z,0.59
2024-01-15T01:29:37.229Z,0.61
2024-01-15T01:31:46.394Z,0.63
2024-01-15T01:33:49.687Z,0.65
2024-01-15T01:35:51.788Z,0.66
2024-01-15T01:37:54.899Z,0.68
2024-01-15T01:39:57.964Z,0.70
2024-01-15T01:42:01.027Z,0.74
2024-01-15T01:44:03.146Z,0.76
2024-01-15T01:46:07.736Z,0.78
2024-01-15T01:48:12.336Z,0.80
2024-01-15T01:50:16.785Z,0.81
2024-01-15T01:52:19.852Z,0.81
2024-01-15T01:54:22.995Z,0.81
2024-01-15T01:56:26.548Z,0.80
2024-01-15T01:58:30.677Z,0.79
2024-01-15T02:00:36.140Z,0.80
2024-01-15T02:02:39.464Z,0.81
2024-01-15T02:04:44.417Z,0.81
2024-01-15T02:06:47.722Z,0.83
2024-01-15T02:08:50.870Z,0.82
2024-01-15T02:10:53.950Z,0.80
2024-01-15T02:12:57.015Z,0.76
2024-01-15T02:15:00.123Z,0.71
2024-01-15T02:17:03.168Z,0.67
2024-01-15T02:19:06.341Z,0.63
2024-01-15T02:21:10.923Z,0.62
2024-01-15T02:23:17.054Z,0.60
2024-01-15T02:25:20.785Z,0.59
2024-01-15T02:27:23.972Z,0.61
2024-01-15T02:29:27.121Z,0.62
2024-01-15T02:31:29.249Z,0.63
2024-01-15T02:33:32.521Z,0.64
2024-01-15T02:35:37.620Z,0.65
2024-01-15T02:37:40.651Z,0.67
2024-01-15T02:39:45.089Z,0.68
2024-01-15T02:41:48.261Z,0.69
2024-01-15T02:43:51.285Z,0.70
2024-01-15T02:45:54.401Z,0.71
2024-01-15T02:47:57.606Z,0.72
2024-01-15T02:49:59.865Z,0.74
2024-01-15T02:52:03.000Z,0.75
2024-01-15T02:54:06.248Z,0.76
2024-01-15T02:56:10.711Z,0.77
2024-01-15T02:58:13.767Z,0.78
2024-01-15T03:00:17.489Z,0.78
2024-01-15T03:02:20.579Z,0.78
2024-01-15T03:04:23.778Z,0.77
2024-01-15T03:06:26.847Z,0.77
2024-01-15T03:08:30.365Z,0.77
2024-01-15T03:10:33.379Z,0.79
2024-01-15T03:12:37.854Z,0.80
2024-01-15T03:14:40.948Z,0.82
2024-01-15T03:16:44.129Z,0.83
2024-01-15T03:18:47.396Z,0.84
2024-01-15T03:20:50.505Z,0.84
2024-01-15T03:22:52.545Z,0.84
2024-01-15T03:24:55.686Z,0.85
2024-01-15T03:26:58.981Z,0.84
2024-01-15T03:29:03.437Z,0.83
2024-01-15T03:31:06.553Z,0.82
2024-01-15T03:33:09.958Z,0.82
2024-01-15T03:35:13.200Z,0.80
2024-01-15T03:37:16.436Z,0.78
2024-01-15T03:39:19.596Z,0.78
2024-01-15T03:41:22.690Z,0.76
2024-01-15T03:43:25.725Z,0.76
2024-01-15T03:45:30.117Z,0.74
2024-01-15T03:47:33.187Z,0.72
2024-01-15T03:49:36.450Z,0.71
2024-01-15T03:51:39.637Z,0.70
2024-01-15T03:53:42.653Z,0.71
2024-01-15T03:55:45.680Z,0.70
2024-01-15T03:57:48.851Z,0.68
2024-01-15T03:59:51.976Z,0.67
2024-01-15T04:01:56.398Z,0.67
2024-01-15T04:03:59.505Z,0.67
2024-01-15T04:06:02.615Z,0.68
2024-01-15T04:08:06.252Z,0.69
2024-01-15T04:10:10.316Z,0.71
2024-01-15T04:12:13.426Z,0.73
2024-01-15T04:14:16.534Z,0.75
2024-01-15T04:16:20.228Z,0.76
2024-01-15T04:18:24.640Z,0.78
2024-01-15T04:20:27.704Z,0.78
2024-01-15T04:22:30.699Z,0.82
2024-01-15T04:24:34.304Z,0.84
2024-01-15T04:26:37.358Z,0.89
2024-01-15T04:28:40.363Z,0.91
2024-01-15T04:30:43.471Z,0.93
2024-01-15T04:32:46.735Z,0.96
2024-01-15T04:34:51.240Z,0.98
2024-01-15T04:36:54.304Z,1.00
2024-01-15T04:38:57.334Z,1.05
2024-01-15T04:41:00.375Z,1.08
2024-01-15T04:43:03.388Z,1.12
2024-01-15T04:45:07.082Z,1.12
2024-01-15T04:47:10.532Z,1.15
2024-01-15T04:49:13.240Z,1.18
2024-01-15T04:51:17.759Z,1.18
2024-01-15T04:53:20.745Z,1.21
2024-01-15T04:55:24.080Z,1.21
2024-01-15T04:57:26.274Z,1.23
2024-01-15T04:59:29.298Z,1.27
2024-01-15T05:01:33.684Z,1.29
2024-01-15T05:03:36.823Z,1.29
2024-01-15T05:05:40.091Z,1.31
2024-01-15T05:07:44.540Z,1.31
2024-01-15T05:09:46.680Z,1.30
2024-01-15T05:11:49.810Z,1.28
2024-01-15T05:13:52.798Z,1.27
2024-01-15T05:15:55.984Z,1.27
2024-01-15T05:17:59.212Z,1.26
2024-01-15T05:20:02.552Z,1.26
2024-01-15T05:22:06.196Z,1.27
2024-01-15T05:24:10.763Z,1.27
2024-01-15T05:26:13.815Z,1.26
2024-01-15T05:28:16.982Z,1.28
2024-01-15T05:30:20.361Z,1.30
2024-01-15T05:32:23.522Z,1.31
2024-01-15T05:34:26.928Z,1.32
2024-01-15T05:36:30.057Z,1.33
2024-01-15T05:38:33.124Z,1.35
2024-01-15T05:40:37.525Z,1.35
2024-01-15T05:42:39.597Z,1.34
2024-01-15T05:44:42.653Z,1.34
2024-01-15T05:46:45.720Z,1.35
2024-01-15T05:48:47.900Z,1.34
2024-01-15T05:50:50.964Z,1.33
2024-01-15T05:52:54.200Z,1.34
2024-01-15T05:54:57.657Z,1.34
2024-01-15T05:57:02.068Z,1.34
2024-01-15T05:59:05.177Z,1.34
2024-01-15T06:01:07.338Z,1.36
2024-01-15T06:03:11.033Z,1.38
2024-01-15T06:05:14.070Z,1.39
2024-01-15T06:07:16.209Z,1.40
2024-01-15T06:09:19.318Z,1.40
2024-01-15T06:11:22.438Z,1.41
2024-01-15T06:13:26.805Z,1.41
2024-01-15T06:15:29.861Z,1.42
2024-01-15T06:17:34.234Z,1.42
2024-01-15T06:19:37.476Z,1.44
2024-01-15T06:21:40.675Z,1.47
2024-01-15T06:23:43.758Z,1.49
2024-01-15T06:25:46.938Z,1.51
2024-01-15T06:27:49.978Z,1.51
2024-01-15T06:29:54.440Z,1.53
2024-01-15T06:31:57.560Z,1.54
2024-01-15T06:34:00.980Z,1.55
2024-01-15T06:36:17.539Z,1.57
2024-01-15T06:38:21.227Z,1.60
2024-01-15T06:40:24.286Z,1.61
2024-01-15T06:42:27.392Z,1.63
2024-01-15T06:44:30.417Z,1.63
2024-01-15T06:46:34.876Z,1.65
2024-01-15T06:48:38.367Z,1.65
2024-01-15T06:50:41.581Z,1.67
2024-01-15T06:52:44.773Z,1.68
2024-01-15T06:54:49.037Z,1.68
2024-01-15T06:56:51.410Z,1.68
2024-01-15T06:58:54.420Z,1.66
2024-01-15T07:00:57.622Z,1.65
2024-01-15T07:03:02.150Z,1.63
2024-01-15T07:05:06.574Z,1.63
2024-01-15T07:07:09.669Z,1.61
2024-01-15T07:09:12.844Z,1.59
2024-01-15T07:11:15.872Z,1.58
2024-01-15T07:13:18.916Z,1.57
2024-01-15T07:15:22.143Z,1.56
2024-01-15T07:17:25.211Z,1.54
2024-01-15T07:19:29.759Z,1.53
2024-01-15T07:21:32.877Z,1.54
2024-01-15T07:23:36.076Z,1.54
2024-01-15T07:25:39.097Z,1.53
2024-01-15T07:27:45.366Z,1.53
2024-01-15T07:29:50.018Z,1.54
2024-01-15T07:31:53.856Z,1.54
2024-01-15T07:33:56.114Z,1.54
2024-01-15T07:36:03.454Z,1.55
2024-01-15T07:38:06.879Z,1.54
2024-01-15T07:40:11.947Z,1.55
2024-01-15T07:42:15.159Z,1.54
2024-01-15T07:44:18.264Z,1.54
2024-01-15T07:46:20.335Z,1.55
2024-01-15T07:48:23.467Z,1.55
2024-01-15T07:50:26.557Z,1.54
2024-01-15T07:52:30.981Z,1.55
2024-01-15T07:54:34.168Z,1.55
2024-01-15T07:56:54.623Z,1.55
2024-01-15T07:58:58.663Z,1.55
2024-01-15T08:01:01.849Z,1.55
2024-01-15T08:03:05.221Z,1.57
2024-01-15T08:05:08.634Z,1.57
2024-01-15T08:07:10.794Z,1.58
2024-01-15T08:09:15.562Z,1.60
2024-01-15T08:11:18.659Z,1.61
2024-01-15T08:13:21.874Z,1.61
2024-01-15T08:15:25.945Z,1.61
2024-01-15T08:17:31.009Z,1.63
2024-01-15T08:19:34.516Z,1.60
2024-01-15T08:21:37.778Z,1.59
2024-01-15T08:23:39.869Z,1.57
2024-01-15T08:25:44.419Z,1.57
2024-01-15T08:27:48.594Z,1.57
2024-01-15T08:29:51.810Z,1.57
2024-01-15T08:31:54.988Z,1.57
2024-01-15T08:33:58.826Z,1.58
2024-01-15T08:36:01.909Z,1.58
2024-01-15T08:38:04.237Z,1.59
2024-01-15T08:40:07.975Z,1.59
2024-01-15T08:42:12.865Z,1.58
2024-01-15T08:44:16.050Z,1.56
2024-01-15T08:46:19.412Z,1.56
2024-01-15T08:48:22.626Z,1.53
2024-01-15T08:50:25.678Z,1.52
2024-01-15T08:52:28.833Z,1.50
2024-01-15T08:54:31.955Z,1.49
2024-01-15T08:56:35.043Z,1.45
2024-01-15T08:58:39.403Z,1.45
2024-01-15T09:00:42.576Z,1.42
2024-01-15T09:02:46.292Z,1.39
2024-01-15T09:04:49.399Z,1.36
2024-01-15T09:06:52.738Z,1.34
2024-01-15T09:08:55.934Z,1.33
2024-01-15T09:10:59.611Z,1.32
2024-01-15T09:13:04.952Z,1.32
2024-01-15T09:15:09.901Z,1.30
2024-01-15T09:17:12.981Z,1.32
2024-01-15T09:19:16.142Z,1.30
2024-01-15T09:21:19.219Z,1.29
2024-01-15T09:23:22.262Z,1.27
2024-01-15T09:25:24.324Z,1.23
2024-01-15T09:27:27.665Z,1.22
2024-01-15T09:29:30.961Z,1.19
2024-01-15T09:31:35.444Z,1.19
2024-01-15T09:33:38.667Z,1.19
2024-01-15T09:35:41.982Z,1.18
2024-01-15T09:37:48.101Z,1.16
2024-01-15T09:39:51.984Z,1.15
2024-01-15T09:41:55.531Z,1.11
2024-01-15T09:43:58.665Z,1.07
2024-01-15T09:46:02.190Z,1.02
2024-01-15T09:48:07.699Z,0.94
2024-01-15T09:50:11.711Z,0.83
2024-01-15T09:52:16.562Z,0.74
2024-01-15T09:54:19.694Z,0.65
2024-01-15T09:56:22.947Z,0.59
2024-01-15T09:58:26.041Z,0.53
2024-01-15T10:00:32.540Z,0.49
2024-01-15T10:02:37.297Z,0.44
2024-01-15T10:04:41.818Z,0.40
2024-01-15T10:06:47.960Z,0.38
2024-01-15T10:08:53.434Z,0.36
2024-01-15T10:10:56.643Z,0.36
2024-01-15T10:13:00.886Z,0.38
2024-01-15T10:15:04.517Z,0.38
2024-01-15T10:17:15.538Z,0.40
2024-01-15T10:19:18.625Z,0.44
2024-01-15T10:21:22.284Z,0.47
2024-01-15T10:23:25.970Z,0.51
2024-01-15T10:25:29.015Z,0.57
2024-01-15T10:27:31.111Z,0.61
2024-01-15T10:29:34.239Z,0.65
2024-01-15T10:31:37.483Z,0.69
2024-01-15T10:33:40.700Z,0.73
2024-01-15T10:35:43.850Z,0.74
2024-01-15T10:37:49.659Z,0.76
2024-01-15T10:39:53.790Z,0.77
2024-01-15T10:41:56.940Z,0.76
2024-01-15T10:44:00.168Z,0.73
2024-01-15T10:46:05.445Z,0.72
2024-01-15T10:48:09.600Z,0.68
2024-01-15T10:50:12.930Z,0.64
2024-01-15T10:52:16.801Z,0.61
2024-01-15T10:54:21.843Z,0.57
2024-01-15T10:56:26.114Z,0.55
2024-01-15T10:58:31.404Z,0.54
2024-01-15T11:00:34.893Z,0.53
2024-01-15T11:02:40.026Z,0.52
2024-01-15T11:04:43.354Z,0.53
2024-01-15T11:06:52.856Z,0.55
2024-01-15T11:08:56.128Z,0.57
2024-01-15T11:11:01.990Z,0.59
2024-01-15T11:13:04.167Z,0.61
2024-01-15T11:15:10.352Z,0.62
2024-01-15T11:17:14.890Z,0.62
2024-01-15T11:19:19.931Z,0.63
2024-01-15T11:21:27.430Z,0.64
2024-01-15T11:23:45.044Z,0.64
2024-01-15T11:25:48.249Z,0.64
2024-01-15T11:27:55.037Z,0.65
2024-01-15T11:30:06.731Z,0.65
2024-01-15T11:32:10.962Z,0.67
2024-01-15T11:34:14.243Z,0.68
2024-01-15T11:36:17.313Z,0.70
2024-01-15T11:38:30.850Z,0.73
2024-01-15T11:40:40.655Z,0.76
2024-01-15T11:42:44.005Z,0.78
2024-01-15T11:44:47.905Z,0.78
2024-01-15T11:46:59.477Z,0.80
2024-01-15T11:49:07.092Z,0.78
2024-01-15T11:51:13.073Z,0.77
2024-01-15T11:53:19.263Z,0.74
2024-01-15T11:55:29.519Z,0.72
2024-01-15T11:57:42.782Z,0.72
2024-01-15T11:59:46.097Z,0.71
2024-01-15T12:01:50.900Z,0.72
2024-01-15T12:03:54.450Z,0.71
2024-01-15T12:05:59.101Z,0.71
2024-01-15T12:08:02.128Z,0.72
2024-01-15T12:10:05.375Z,0.69
2024-01-15T12:12:14.974Z,0.66
2024-01-15T12:14:18.244Z,0.63
2024-01-15T12:16:21.373Z,0.59
2024-01-15T12:18:26.224Z,0.57
2024-01-15T12:20:29.319Z,0.54
2024-01-15T12:22:41.873Z,0.52
2024-01-15T12:24:52.595Z,0.50
2024-01-15T12:26:55.789Z,0.50
2024-01-15T12:28:59.031Z,0.51
2024-01-15T12:31:06.580Z,0.51
2024-01-15T12:33:11.025Z,0.53
2024-01-15T12:35:15.773Z,0.53
2024-01-15T12:37:20.644Z,0.53
2024-01-15T12:39:22.856Z,0.55
2024-01-15T12:41:26.177Z,0.57
2024-01-15T12:43:28.840Z,0.57
2024-01-15T12:45:36.843Z,0.58
2024-01-15T12:47:39.719Z,0.60
2024-01-15T12:49:42.994Z,0.63
2024-01-15T12:51:54.772Z,0.65
2024-01-15T12:53:57.990Z,0.66
2024-01-15T12:56:01.072Z,0.69
2024-01-15T12:58:04.164Z,0.70
2024-01-15T13:00:08.534Z,0.73
2024-01-15T13:02:14.887Z,0.74
2024-01-15T13:04:26.522Z,0.76
2024-01-15T13:06:30.007Z,0.76
2024-01-15T13:08:34.487Z,0.75
2024-01-15T13:10:43.567Z,0.74
2024-01-15T13:12:49.729Z,0.73
2024-01-15T13:14:53.361Z,0.74
2024-01-15T13:17:03.120Z,0.75
2024-01-15T13:19:08.145Z,0.76
2024-01-15T13:21:14.938Z,0.78
2024-01-15T13:23:21.753Z,0.77
2024-01-15T13:25:28.842Z,0.77
2024-01-15T13:27:30.962Z,0.75
2024-01-15T13:29:37.835Z,0.75
2024-01-15T13:31:42.924Z,0.75
2024-01-15T13:33:46.187Z,0.76
2024-01-15T13:35:52.367Z,0.75
2024-01-15T13:37:55.684Z,0.74
2024-01-15T13:39:59.939Z,0.74
2024-01-15T13:42:05.441Z,0.74
2024-01-15T13:44:13.689Z,0.73
2024-01-15T13:46:16.146Z,0.74
2024-01-15T13:48:19.404Z,0.74
2024-01-15T13:50:25.999Z,0.72
2024-01-15T13:52:29.892Z,0.71
2024-01-15T13:54:45.178Z,0.71
2024-01-15T13:56:52.766Z,0.70
2024-01-15T13:58:57.283Z,0.68
2024-01-15T14:01:00.575Z,0.64
2024-01-15T14:03:04.662Z,0.61
2024-01-15T14:05:08.717Z,0.60
2024-01-15T14:07:10.828Z,0.60
2024-01-15T14:09:15.574Z,0.59
2024-01-15T14:11:18.739Z,0.59
2024-01-15T14:13:20.779Z,0.59
2024-01-15T14:15:25.231Z,0.57
2024-01-15T14:17:28.417Z,0.57
2024-01-15T14:19:31.595Z,0.58
2024-01-15T14:21:34.692Z,0.56
2024-01-15T14:23:36.732Z,0.54
2024-01-15T14:25:40.417Z,0.52
2024-01-15T14:27:42.501Z,0.49
2024-01-15T14:29:47.421Z,0.46
2024-01-15T14:31:51.894Z,0.44
2024-01-15T14:33:56.104Z,0.41
2024-01-15T14:36:00.096Z,0.40
2024-01-15T14:38:03.241Z,0.38
2024-01-15T14:40:07.464Z,0.36
2024-01-15T14:42:10.730Z,0.34
2024-01-15T14:44:14.021Z,0.33
2024-01-15T14:46:17.048Z,0.32
2024-01-15T14:48:20.618Z,0.32
2024-01-15T14:50:24.314Z,0.29
2024-01-15T14:52:27.403Z,0.27
2024-01-15T14:54:30.521Z,0.25
2024-01-15T14:56:33.668Z,0.21
2024-01-15T14:58:36.730Z,0.17
2024-01-15T15:00:39.891Z,0.12
2024-01-15T15:02:42.120Z,0.07
2024-01-15T15:04:49.646Z,0.04
2024-01-15T15:06:53.368Z,-0.02
2024-01-15T15:08:58.890Z,-0.05
2024-01-15T15:11:02.638Z,-0.07
2024-01-15T15:13:06.331Z,-0.10
2024-01-15T15:15:14.627Z,-0.13
2024-01-15T15:17:20.468Z,-0.17
2024-01-15T15:19:23.501Z,-0.19
2024-01-15T15:21:29.855Z,-0.23
2024-01-15T15:23:32.969Z,-0.24
2024-01-15T15:25:36.436Z,-0.27
2024-01-15T15:27:41.115Z,-0.30
2024-01-15T15:29:43.381Z,-0.32
2024-01-15T15:31:46.843Z,-0.32
2024-01-15T15:33:50.119Z,-0.33
2024-01-15T15:35:53.299Z,-0.32
2024-01-15T15:37:57.647Z,-0.32
2024-01-15T15:40:00.494Z,-0.31
2024-01-15T15:42:03.766Z,-0.32
2024-01-15T15:44:06.838Z,-0.35
2024-01-15T15:46:09.887Z,-0.35
2024-01-15T15:48:13.482Z,-0.37
2024-01-15T15:50:15.791Z,-0.37
2024-01-15T15:52:18.840Z,-0.38
2024-01-15T15:54:23.977Z,-0.41
2024-01-15T15:56:27.399Z,-0.42
2024-01-15T15:58:30.459Z,-0.44
2024-01-15T16:00:33.693Z,-0.45
2024-01-15T16:02:36.888Z,-0.47
2024-01-15T16:04:40.135Z,-0.49
2024-01-15T16:06:43.818Z,-0.50
2024-01-15T16:08:46.906Z,-0.54
2024-01-15T16:10:53.041Z,-0.57
2024-01-15T16:12:56.627Z,-0.57
2024-01-15T16:15:00.267Z,-0.57
2024-01-15T16:23:14.182Z,-0.59
2024-01-15T16:23:25.273Z,-0.59
2024-01-15T16:23:38.325Z,-0.59
2024-01-15T16:24:20.255Z,-0.60
2024-01-15T16:26:31.418Z,-0.61
2024-01-15T16:28:34.847Z,-0.61
2024-01-15T16:30:45.082Z,-0.64
2024-01-15T16:32:50.028Z,-0.66
2024-01-15T16:34:53.715Z,-0.69
2024-01-15T16:36:56.851Z,-0.70
2024-01-15T16:39:00.106Z,-0.73
2024-01-15T16:41:03.235Z,-0.74
2024-01-15T16:43:09.539Z,-0.77
2024-01-15T16:45:14.010Z,-0.79
2024-01-15T16:47:17.294Z,-0.80
2024-01-15T16:49:19.778Z,-0.80
2024-01-15T16:51:23.586Z,-0.81
2024-01-15T16:53:27.043Z,-0.81
2024-01-15T16:55:30.808Z,-0.80
2024-01-15T16:57:34.029Z,-0.78
2024-01-15T16:59:38.781Z,-0.78
2024-01-15T17:01:41.865Z,-0.77
2024-01-15T17:03:45.083Z,-0.75
2024-01-15T17:05:48.324Z,-0.75
2024-01-15T17:07:51.523Z,-0.73
2024-01-15T17:09:54.666Z,-0.71
2024-01-15T17:11:57.889Z,-0.70
2024-01-15T17:14:01.684Z,-0.69
2024-01-15T17:16:07.161Z,-0.68
2024-01-15T17:18:10.533Z,-0.65
2024-01-15T17:20:14.869Z,-0.64
2024-01-15T17:22:18.015Z,-0.62
2024-01-15T17:24:21.199Z,-0.60
2024-01-15T17:26:23.650Z,-0.58
2024-01-15T17:28:27.004Z,-0.58
2024-01-15T17:30:30.029Z,-0.59
2024-01-15T17:32:34.426Z,-0.60
2024-01-15T17:34:37.766Z,-0.61
2024-01-15T17:36:41.083Z,-0.62
2024-01-15T17:38:44.608Z,-0.63
2024-01-15T17:40:47.913Z,-0.61
2024-01-15T17:42:51.553Z,-0.59
2024-01-15T17:44:54.760Z,-0.58
2024-01-15T17:46:57.833Z,-0.56
2024-01-15T17:49:04.714Z,-0.55
2024-01-15T17:51:07.929Z,-0.53
2024-01-15T17:53:13.575Z,-0.51
2024-01-15T17:55:16.843Z,-0.49
2024-01-15T17:57:18.973Z,-0.46
2024-01-15T17:59:22.085Z,-0.46
2024-01-15T18:01:25.152Z,-0.45
2024-01-15T18:03:28.237Z,-0.42
2024-01-15T18:05:32.727Z,-0.43
2024-01-15T18:07:35.834Z,-0.42
2024-01-15T18:09:38.821Z,-0.41
2024-01-15T18:11:42.053Z,-0.40
2024-01-15T18:13:45.173Z,-0.41
2024-01-15T18:15:48.873Z,-0.41
2024-01-15T18:17:52.323Z,-0.41
2024-01-15T18:19:55.723Z,-0.41
2024-01-15T18:22:00.172Z,-0.41
2024-01-15T18:24:03.193Z,-0.41
2024-01-15T18:26:06.804Z,-0.42
2024-01-15T18:28:11.292Z,-0.43
2024-01-15T18:30:15.331Z,-0.44
2024-01-15T18:32:18.379Z,-0.45
2024-01-15T18:34:21.522Z,-0.46
2024-01-15T18:36:23.624Z,-0.48
2024-01-15T18:38:28.115Z,-0.49
2024-01-15T18:40:36.005Z,-0.49
2024-01-15T18:42:39.139Z,-0.49
2024-01-15T18:44:42.404Z,-0.50
2024-01-15T18:46:46.935Z,-0.52
2024-01-15T18:48:50.178Z,-0.53
2024-01-15T18:50:53.617Z,-0.55
2024-01-15T18:52:57.003Z,-0.57
2024-01-15T18:55:01.465Z,-0.59
2024-01-15T18:57:04.634Z,-0.61
2024-01-15T18:59:07.788Z,-0.64
2024-01-15T19:01:11.655Z,-0.66
2024-01-15T19:03:14.855Z,-0.67
2024-01-15T19:05:27.190Z,-0.68
2024-01-15T19:07:30.473Z,-0.66
2024-01-15T19:09:34.184Z,-0.65
2024-01-15T19:11:39.091Z,-0.64
2024-01-15T19:13:42.490Z,-0.61
2024-01-15T19:15:45.666Z,-0.58
2024-01-15T19:17:50.094Z,-0.55
2024-01-15T19:19:57.390Z,-0.54
2024-01-15T19:22:03.252Z,-0.52
2024-01-15T19:24:06.759Z,-0.48
2024-01-15T19:26:20.952Z,-0.46
2024-01-15T19:28:26.297Z,-0.42
2024-01-15T19:30:28.829Z,-0.40
2024-01-15T19:32:33.671Z,-0.38
2024-01-15T19:34:43.160Z,-0.37
2024-01-15T19:36:45.422Z,-0.37
2024-01-15T19:38:50.882Z,-0.36
2024-01-15T19:40:54.403Z,-0.35
2024-01-15T19:43:02.425Z,-0.33
2024-01-15T19:45:09.773Z,-0.33
2024-01-15T19:47:14.335Z,-0.33
2024-01-15T19:49:18.176Z,-0.32
2024-01-15T19:51:25.171Z,-0.30
2024-01-15T19:53:30.316Z,-0.29
2024-01-15T19:55:34.262Z,-0.28
2024-01-15T19:57:38.000Z,-0.26
2024-01-15T19:59:41.300Z,-0.27
2024-01-15T20:01:48.131Z,-0.25
2024-01-15T20:03:53.241Z,-0.24
2024-01-15T20:05:57.131Z,-0.24
2024-01-15T20:08:01.029Z,-0.23
2024-01-15T20:10:04.265Z,-0.21
2024-01-15T20:12:09.487Z,-0.22
2024-01-15T20:14:13.847Z,-0.22
2024-01-15T20:16:17.160Z,-0.22
2024-01-15T20:18:22.039Z,-0.20
2024-01-15T20:20:28.332Z,-0.21
2024-01-15T20:22:34.943Z,-0.19
2024-01-15T20:24:38.510Z,-0.19
2024-01-15T20:26:44.042Z,-0.18
2024-01-15T20:28:48.567Z,-0.17
2024-01-15T20:30:52.524Z,-0.16
2024-01-15T20:32:56.175Z,-0.15
2024-01-15T20:35:00.489Z,-0.13
2024-01-15T20:37:03.870Z,-0.13
2024-01-15T20:39:08.323Z,-0.09
2024-01-15T20:41:11.676Z,-0.08
2024-01-15T20:43:15.728Z,-0.10
2024-01-15T20:45:18.746Z,-0.11
2024-01-15T20:47:22.010Z,-0.13
2024-01-15T20:49:27.115Z,-0.15
2024-01-15T20:51:31.647Z,-0.17
2024-01-15T20:53:35.120Z,-0.18
2024-01-15T20:55:38.355Z,-0.18
2024-01-15T20:57:41.423Z,-0.21
2024-01-15T20:59:44.584Z,-0.22
2024-01-15T21:01:48.081Z,-0.24
2024-01-15T21:03:51.386Z,-0.25
2024-01-15T21:05:54.583Z,-0.26
2024-01-15T21:07:59.122Z,-0.27
2024-01-15T21:10:02.227Z,-0.27
2024-01-15T21:12:08.664Z,-0.26
2024-01-15T21:14:19.428Z,-0.30
2024-01-15T21:16:22.813Z,-0.30
2024-01-15T21:18:26.125Z,-0.31
2024-01-15T21:20:29.513Z,-0.35
2024-01-15T21:22:32.654Z,-0.38
2024-01-15T21:24:37.425Z,-0.41
2024-01-15T21:26:40.500Z,-0.42
2024-01-15T21:28:44.459Z,-0.46
2024-01-15T21:30:48.137Z,-0.48
2024-01-15T21:32:51.670Z,-0.51
2024-01-15T21:34:54.842Z,-0.55
2024-01-15T21:36:58.098Z,-0.59
2024-01-15T21:39:01.216Z,-0.65
2024-01-15T21:41:05.087Z,-0.67
2024-01-15T21:43:08.110Z,-0.69
2024-01-15T21:45:10.734Z,-0.73
2024-01-15T21:47:13.862Z,-0.77
2024-01-15T21:49:16.991Z,-0.79
2024-01-15T21:51:20.265Z,-0.80
2024-01-15T21:53:23.312Z,-0.82
2024-01-15T21:55:26.422Z,-0.85
2024-01-15T21:57:30.882Z,-0.85
2024-01-15T21:59:34.802Z,-0.86
2024-01-15T22:01:37.963Z,-0.88
2024-01-15T22:03:41.132Z,-0.89
2024-01-15T22:05:44.266Z,-0.88
2024-01-15T22:07:47.518Z,-0.89
2024-01-15T22:09:49.654Z,-0.89
2024-01-15T22:11:52.792Z,-0.91
2024-01-15T22:13:57.313Z,-0.90
2024-01-15T22:16:00.573Z,-0.91
2024-01-15T22:18:04.128Z,-0.91
2024-01-15T22:20:08.187Z,-0.89
2024-01-15T22:22:12.251Z,-0.89
2024-01-15T22:24:15.576Z,-0.89
2024-01-15T22:26:18.608Z,-0.89
2024-01-15T22:28:21.667Z,-0.91
2024-01-15T22:30:26.358Z,-0.93
2024-01-15T22:32:32.111Z,-0.93
2024-01-15T22:34:34.797Z,-0.96
2024-01-15T22:36:37.899Z,-0.99
2024-01-15T22:38:41.454Z,-1.03
2024-01-15T22:40:44.575Z,-1.07
2024-01-15T22:42:47.676Z,-1.10
2024-01-15T22:44:50.785Z,-1.12
2024-01-15T22:46:55.306Z,-1.12
2024-01-15T22:48:58.483Z,-1.11
2024-01-15T22:51:00.684Z,-1.10
2024-01-15T22:53:03.810Z,-1.09
2024-01-15T22:55:07.927Z,-1.08
2024-01-15T22:57:11.034Z,-1.07
2024-01-15T22:59:16.994Z,-1.08
2024-01-15T23:01:22.221Z,-1.09
2024-01-15T23:03:26.780Z,-1.08
2024-01-15T23:05:30.889Z,-1.11
2024-01-15T23:07:34.081Z,-1.11
2024-01-15T23:09:37.529Z,-1.10
2024-01-15T23:11:40.660Z,-1.10
2024-01-15T23:13:43.851Z,-1.09
2024-01-15T23:15:47.053Z,-1.10
2024-01-15T23:17:50.300Z,-1.12
2024-01-15T23:19:54.694Z,-1.17
2024-01-15T23:21:57.725Z,-1.19
2024-01-15T23:24:00.821Z,-1.21
2024-01-15T23:26:03.159Z,-1.23
2024-01-15T23:28:07.156Z,-1.26
2024-01-15T23:30:11.469Z,-1.27
2024-01-15T23:32:14.676Z,-1.28
2024-01-15T23:34:17.897Z,-1.28
2024-01-15T23:36:22.545Z,-1.27
2024-01-15T23:38:25.712Z,-1.27
2024-01-15T23:40:28.764Z,-1.27
2024-01-15T23:42:31.795Z,-1.26
2024-01-15T23:44:36.788Z,-1.27
2024-01-15T23:46:38.894Z,-1.28
2024-01-15T23:48:42.658Z,-1.26
2024-01-15T23:50:45.842Z,-1.28
2024-01-15T23:52:50.503Z,-1.29
2024-01-15T23:54:53.543Z,-1.32
2024-01-15T23:56:55.713Z,-1.35
2024-01-15T23:58:58.782Z,-1.38
